sensor_id;sensor_type;location;lat;lon;timestamp;pressure;altitude;pressure_sealevel;temperature;humidity
74895;BME280;63447;49.446;8.666;2024-02-15T00:02:24;100815.16;;;10.97;100.00
74895;BME280;63447;49.446;8.666;2024-02-15T00:04:50;100810.97;;;11.00;100.00
74895;BME280;63447;49.446;8.666;2024-02-15T00:07:20;100810.97;;;11.00;100.00
74895;BME280;63447;49.446;8.666;2024-02-15T00:09:48;100815.66;;;10.99;100.00
74895;BME280;63447;49.446;8.666;2024-02-15T00:12:15;100804.13;;;10.97;100.00
74895;BME280;63447;49.446;8.666;2024-02-15T00:14:44;100809.81;;;10.92;100.00
74895;BME280;63447;49.446;8.666;2024-02-15T00:17:23;100807.22;;;10.87;100.00
74895;BME280;63447;49.446;8.666;2024-02-15T00:19:48;100798.44;;;10.85;100.00
74895;BME280;63447;49.446;8.666;2024-02-15T00:22:16;100806.72;;;10.85;100.00
74895;BME280;63447;49.446;8.666;2024-02-15T00:24:43;100800.06;;;10.86;100.00
74895;BME280;63447;49.446;8.666;2024-02-15T00:27:10;100788.69;;;10.79;100.00
74895;BME280;63447;49.446;8.666;2024-02-15T00:29:38;100782.66;;;10.68;100.00
74895;BME280;63447;49.446;8.666;2024-02-15T00:32:05;100809.50;;;10.85;100.00
74895;BME280;63447;49.446;8.666;2024-02-15T00:34:31;100793.72;;;10.77;100.00
74895;BME280;63447;49.446;8.666;2024-02-15T00:36:57;100803.00;;;10.81;100.00
74895;BME280;63447;49.446;8.666;2024-02-15T00:39:22;100787.38;;;10.68;100.00
74895;BME280;63447;49.446;8.666;2024-02-15T00:41:52;100791.44;;;10.70;100.00
74895;BME280;63447;49.446;8.666;2024-02-15T00:44:18;100802.50;;;10.79;100.00
74895;BME280;63447;49.446;8.666;2024-02-15T00:46:43;100790.94;;;10.68;100.00
74895;BME280;63447;49.446;8.666;2024-02-15T00:49:09;100788.84;;;10.65;100.00
74895;BME280;63447;49.446;8.666;2024-02-15T00:51:35;100794.50;;;10.69;100.00
74895;BME280;63447;49.446;8.666;2024-02-15T00:54:02;100790.81;;;10.65;100.00
74895;BME280;63447;49.446;8.666;2024-02-15T00:56:30;100776.66;;;10.58;100.00
74895;BME280;63447;49.446;8.666;2024-02-15T00:58:58;100782.03;;;10.63;100.00
74895;BME280;63447;49.446;8.666;2024-02-15T01:01:26;100778.94;;;10.64;100.00
74895;BME280;63447;49.446;8.666;2024-02-15T01:03:53;100789.63;;;10.66;100.00
74895;BME280;63447;49.446;8.666;2024-02-15T01:06:23;100789.63;;;10.66;100.00
74895;BME280;63447;49.446;8.666;2024-02-15T01:08:49;100777.31;;;10.63;100.00
74895;BME280;63447;49.446;8.666;2024-02-15T01:11:15;100770.97;;;10.54;100.00
74895;BME280;63447;49.446;8.666;2024-02-15T01:13:43;100773.22;;;10.52;100.00
74895;BME280;63447;49.446;8.666;2024-02-15T01:16:10;100767.88;;;10.56;100.00
74895;BME280;63447;49.446;8.666;2024-02-15T01:18:35;100767.53;;;10.48;100.00
74895;BME280;63447;49.446;8.666;2024-02-15T01:21:03;100778.75;;;10.52;100.00
74895;BME280;63447;49.446;8.666;2024-02-15T01:23:31;100781.19;;;10.53;100.00
74895;BME280;63447;49.446;8.666;2024-02-15T01:25:57;100789.97;;;10.56;100.00
74895;BME280;63447;49.446;8.666;2024-02-15T01:28:22;100776.66;;;10.58;100.00
74895;BME280;63447;49.446;8.666;2024-02-15T01:30:48;100766.75;;;10.57;100.00
74895;BME280;63447;49.446;8.666;2024-02-15T01:33:13;100779.28;;;10.63;100.00
74895;BME280;63447;49.446;8.666;2024-02-15T01:35:42;100788.34;;;10.72;100.00
74895;BME280;63447;49.446;8.666;2024-02-15T01:38:08;100786.09;;;10.74;100.00
74895;BME280;63447;49.446;8.666;2024-02-15T01:40:33;100772.94;;;10.71;100.00
74895;BME280;63447;49.446;8.666;2024-02-15T01:42:59;100775.88;;;10.74;100.00
74895;BME280;63447;49.446;8.666;2024-02-15T01:45:27;100788.38;;;10.80;100.00
74895;BME280;63447;49.446;8.666;2024-02-15T01:47:53;100782.38;;;10.87;100.00
74895;BME280;63447;49.446;8.666;2024-02-15T01:50:19;100760.59;;;10.68;100.00
74895;BME280;63447;49.446;8.666;2024-02-15T01:52:47;100778.78;;;10.78;100.00
74895;BME280;63447;49.446;8.666;2024-02-15T01:55:17;100774.25;;;10.82;100.00
74895;BME280;63447;49.446;8.666;2024-02-15T01:57:44;100772.47;;;10.86;100.00
74895;BME280;63447;49.446;8.666;2024-02-15T02:00:13;100773.59;;;10.85;100.00
74895;BME280;63447;49.446;8.666;2024-02-15T02:02:42;100778.00;;;10.86;100.00
74895;BME280;63447;49.446;8.666;2024-02-15T02:05:08;100777.66;;;10.87;100.00
74895;BME280;63447;49.446;8.666;2024-02-15T02:07:36;100778.97;;;10.90;100.00
74895;BME280;63447;49.446;8.666;2024-02-15T02:10:02;100778.78;;;10.95;100.00
74895;BME280;63447;49.446;8.666;2024-02-15T02:12:27;100773.59;;;10.94;100.00
74895;BME280;63447;49.446;8.666;2024-02-15T02:14:56;100756.72;;;10.86;100.00
74895;BME280;63447;49.446;8.666;2024-02-15T02:17:21;100759.28;;;10.92;100.00
74895;BME280;63447;49.446;8.666;2024-02-15T02:19:47;100748.13;;;10.88;100.00
74895;BME280;63447;49.446;8.666;2024-02-15T02:22:16;100759.47;;;10.86;100.00
74895;BME280;63447;49.446;8.666;2024-02-15T02:25:09;100759.16;;;10.88;100.00
74895;BME280;63447;49.446;8.666;2024-02-15T02:27:36;100740.63;;;10.80;100.00
74895;BME280;63447;49.446;8.666;2024-02-15T02:30:14;100747.31;;;10.87;100.00
74895;BME280;63447;49.446;8.666;2024-02-15T02:32:45;100744.88;;;10.86;100.00
74895;BME280;63447;49.446;8.666;2024-02-15T02:35:14;100758.00;;;10.80;100.00
74895;BME280;63447;49.446;8.666;2024-02-15T02:37:41;100745.19;;;10.76;100.00
74895;BME280;63447;49.446;8.666;2024-02-15T02:40:08;100746.00;;;10.76;100.00
74895;BME280;63447;49.446;8.666;2024-02-15T02:42:36;100754.78;;;10.87;100.00
74895;BME280;63447;49.446;8.666;2024-02-15T02:45:03;100745.66;;;10.78;100.00
74895;BME280;63447;49.446;8.666;2024-02-15T02:47:30;100755.75;;;10.82;100.00
74895;BME280;63447;49.446;8.666;2024-02-15T02:49:56;100750.53;;;10.81;100.00
74895;BME280;63447;49.446;8.666;2024-02-15T02:52:21;100740.47;;;10.76;100.00
74895;BME280;63447;49.446;8.666;2024-02-15T02:54:47;100750.53;;;10.81;100.00
74895;BME280;63447;49.446;8.666;2024-02-15T02:57:12;100741.59;;;10.75;100.00
74895;BME280;63447;49.446;8.666;2024-02-15T02:59:37;100743.22;;;10.68;100.00
74895;BME280;63447;49.446;8.666;2024-02-15T03:02:05;100739.97;;;10.66;100.00
74895;BME280;63447;49.446;8.666;2024-02-15T03:04:33;100740.31;;;10.73;100.00
74895;BME280;63447;49.446;8.666;2024-02-15T03:06:58;100735.25;;;10.66;100.00
74895;BME280;63447;49.446;8.666;2024-02-15T03:09:23;100745.66;;;10.78;100.00
74895;BME280;63447;49.446;8.666;2024-02-15T03:11:54;100741.59;;;10.75;100.00
74895;BME280;63447;49.446;8.666;2024-02-15T03:14:22;100737.06;;;10.71;100.00
74895;BME280;63447;49.446;8.666;2024-02-15T03:16:47;100748.25;;;10.74;100.00
74895;BME280;63447;49.446;8.666;2024-02-15T03:19:12;100733.47;;;10.70;100.00
74895;BME280;63447;49.446;8.666;2024-02-15T03:21:38;100735.44;;;10.70;100.00
74895;BME280;63447;49.446;8.666;2024-02-15T03:24:06;100742.75;;;10.74;100.00
74895;BME280;63447;49.446;8.666;2024-02-15T03:26:32;100746.31;;;10.75;100.00
74895;BME280;63447;49.446;8.666;2024-02-15T03:29:02;100759.00;;;10.84;100.00
74895;BME280;63447;49.446;8.666;2024-02-15T03:31:30;100741.78;;;10.79;100.00
74895;BME280;63447;49.446;8.666;2024-02-15T03:34:03;100751.50;;;10.76;100.00
74895;BME280;63447;49.446;8.666;2024-02-15T03:36:28;100747.44;;;10.74;100.00
74895;BME280;63447;49.446;8.666;2024-02-15T03:38:56;100748.75;;;10.76;100.00
74895;BME280;63447;49.446;8.666;2024-02-15T03:41:22;100754.59;;;10.75;100.00
74895;BME280;63447;49.446;8.666;2024-02-15T03:43:49;100749.25;;;10.78;100.00
74895;BME280;63447;49.446;8.666;2024-02-15T03:46:15;100753.75;;;10.66;100.00
74895;BME280;63447;49.446;8.666;2024-02-15T03:48:42;100747.63;;;10.60;100.00
74895;BME280;63447;49.446;8.666;2024-02-15T03:51:17;100759.94;;;10.63;100.00
74895;BME280;63447;49.446;8.666;2024-02-15T03:53:44;100752.16;;;10.65;100.00
74895;BME280;63447;49.446;8.666;2024-02-15T03:56:09;100766.78;;;10.65;100.00
74895;BME280;63447;49.446;8.666;2024-02-15T03:58:34;100767.56;;;10.66;100.00
74895;BME280;63447;49.446;8.666;2024-02-15T04:01:01;100762.22;;;10.61;100.00
74895;BME280;63447;49.446;8.666;2024-02-15T04:03:31;100763.66;;;10.67;100.00
74895;BME280;63447;49.446;8.666;2024-02-15T04:05:57;100758.81;;;10.64;100.00
74895;BME280;63447;49.446;8.666;2024-02-15T04:08:23;100758.50;;;10.65;100.00
74895;BME280;63447;49.446;8.666;2024-02-15T04:10:49;100758.97;;;10.59;100.00
74895;BME280;63447;49.446;8.666;2024-02-15T04:13:14;100767.56;;;10.66;100.00
74895;BME280;63447;49.446;8.666;2024-02-15T04:15:42;100751.34;;;10.56;100.00
74895;BME280;63447;49.446;8.666;2024-02-15T04:18:09;100765.63;;;10.58;100.00
74895;BME280;63447;49.446;8.666;2024-02-15T04:20:38;100747.09;;;10.49;100.00
74895;BME280;63447;49.446;8.666;2024-02-15T04:23:03;100758.66;;;10.60;100.00
74895;BME280;63447;49.446;8.666;2024-02-15T04:25:31;100751.34;;;10.56;100.00
74895;BME280;63447;49.446;8.666;2024-02-15T04:27:56;100749.41;;;10.65;100.00
74895;BME280;63447;49.446;8.666;2024-02-15T04:30:28;100710.06;;;10.42;100.00
74895;BME280;63447;49.446;8.666;2024-02-15T04:32:54;100738.38;;;10.65;100.00
74895;BME280;63447;49.446;8.666;2024-02-15T04:35:19;100733.50;;;10.62;100.00
74895;BME280;63447;49.446;8.666;2024-02-15T04:37:47;100749.72;;;10.72;100.00
74895;BME280;63447;49.446;8.666;2024-02-15T04:40:14;100706.22;;;10.51;100.00
74895;BME280;63447;49.446;8.666;2024-02-15T04:42:40;100749.88;;;10.75;100.00
74895;BME280;63447;49.446;8.666;2024-02-15T04:45:09;100740.94;;;10.70;100.00
74895;BME280;63447;49.446;8.666;2024-02-15T04:47:38;100715.63;;;10.68;100.00
74895;BME280;63447;49.446;8.666;2024-02-15T04:50:06;100722.44;;;10.70;100.00
74895;BME280;63447;49.446;8.666;2024-02-15T04:52:32;100723.25;;;10.71;100.00
74895;BME280;63447;49.446;8.666;2024-02-15T04:54:58;100730.56;;;10.67;100.00
74895;BME280;63447;49.446;8.666;2024-02-15T04:57:24;100727.34;;;10.65;100.00
74895;BME280;63447;49.446;8.666;2024-02-15T04:59:53;100730.41;;;10.63;100.00
74895;BME280;63447;49.446;8.666;2024-02-15T05:02:21;100733.16;;;10.63;100.00
74895;BME280;63447;49.446;8.666;2024-02-15T05:04:52;100729.75;;;10.66;100.00
74895;BME280;63447;49.446;8.666;2024-02-15T05:07:22;100727.97;;;10.62;100.00
74895;BME280;63447;49.446;8.666;2024-02-15T05:09:53;100733.31;;;10.67;100.00
74895;BME280;63447;49.446;8.666;2024-02-15T05:12:25;100730.56;;;10.67;100.00
74895;BME280;63447;49.446;8.666;2024-02-15T05:14:53;100722.13;;;10.63;100.00
74895;BME280;63447;49.446;8.666;2024-02-15T05:17:24;100691.44;;;10.47;100.00
74895;BME280;63447;49.446;8.666;2024-02-15T05:19:52;100722.94;;;10.72;100.00
74895;BME280;63447;49.446;8.666;2024-02-15T05:22:24;100721.13;;;10.68;100.00
74895;BME280;63447;49.446;8.666;2024-02-15T05:24:54;100724.22;;;10.75;100.00
74895;BME280;63447;49.446;8.666;2024-02-15T05:27:19;100709.44;;;10.71;100.00
74895;BME280;63447;49.446;8.666;2024-02-15T05:29:47;100720.81;;;10.78;100.00
74895;BME280;63447;49.446;8.666;2024-02-15T05:32:12;100711.91;;;10.64;100.00
74895;BME280;63447;49.446;8.666;2024-02-15T05:34:44;100719.69;;;10.70;100.00
74895;BME280;63447;49.446;8.666;2024-02-15T05:37:10;100710.78;;;10.65;100.00
74895;BME280;63447;49.446;8.666;2024-02-15T05:39:35;100725.53;;;10.69;100.00
74895;BME280;63447;49.446;8.666;2024-02-15T05:42:01;100726.19;;;10.74;100.00
74895;BME280;63447;49.446;8.666;2024-02-15T05:44:30;100710.28;;;10.63;100.00
74895;BME280;63447;49.446;8.666;2024-02-15T05:46:57;100713.38;;;10.61;100.00
74895;BME280;63447;49.446;8.666;2024-02-15T05:49:23;100713.34;;;10.52;100.00
74895;BME280;63447;49.446;8.666;2024-02-15T05:51:49;100720.84;;;10.61;100.00
74895;BME280;63447;49.446;8.666;2024-02-15T05:54:14;100716.91;;;10.53;100.00
74895;BME280;63447;49.446;8.666;2024-02-15T05:56:42;100718.22;;;10.56;100.00
74895;BME280;63447;49.446;8.666;2024-02-15T05:59:08;100724.09;;;10.63;100.00
74895;BME280;63447;49.446;8.666;2024-02-15T06:01:36;100717.25;;;10.69;100.00
74895;BME280;63447;49.446;8.666;2024-02-15T06:04:02;100718.88;;;10.70;100.00
74895;BME280;63447;49.446;8.666;2024-02-15T06:06:34;100723.91;;;10.68;100.00
74895;BME280;63447;49.446;8.666;2024-02-15T06:09:02;100734.47;;;10.74;100.00
74895;BME280;63447;49.446;8.666;2024-02-15T06:11:28;100711.56;;;10.57;100.00
74895;BME280;63447;49.446;8.666;2024-02-15T06:14:00;100704.75;;;10.63;100.00
74895;BME280;63447;49.446;8.666;2024-02-15T06:16:26;100732.19;;;10.68;100.00
74895;BME280;63447;49.446;8.666;2024-02-15T06:18:53;100721.31;;;10.71;100.00
74895;BME280;63447;49.446;8.666;2024-02-15T06:21:20;100712.69;;;10.73;100.00
74895;BME280;63447;49.446;8.666;2024-02-15T06:23:45;100696.81;;;10.61;100.00
74895;BME280;63447;49.446;8.666;2024-02-15T06:26:15;100709.59;;;10.66;100.00
74895;BME280;63447;49.446;8.666;2024-02-15T06:28:43;100710.28;;;10.63;100.00
74895;BME280;63447;49.446;8.666;2024-02-15T06:31:32;100702.31;;;10.61;100.00
74895;BME280;63447;49.446;8.666;2024-02-15T06:34:15;100706.88;;;10.74;100.00
74895;BME280;63447;49.446;8.666;2024-02-15T06:36:59;100689.97;;;10.67;100.00
74895;BME280;63447;49.446;8.666;2024-02-15T06:39:43;100701.50;;;10.69;100.00
74895;BME280;63447;49.446;8.666;2024-02-15T06:42:14;100701.66;;;10.73;100.00
74895;BME280;63447;49.446;8.666;2024-02-15T06:44:45;100709.28;;;10.76;100.00
74895;BME280;63447;49.446;8.666;2024-02-15T06:47:12;100692.91;;;10.71;100.00
74895;BME280;63447;49.446;8.666;2024-02-15T06:49:41;100701.16;;;10.71;100.00
74895;BME280;63447;49.446;8.666;2024-02-15T06:52:14;100700.69;;;10.69;100.00
74895;BME280;63447;49.446;8.666;2024-02-15T06:54:39;100710.59;;;10.78;100.00
74895;BME280;63447;49.446;8.666;2024-02-15T06:57:05;100702.16;;;10.75;100.00
74895;BME280;63447;49.446;8.666;2024-02-15T06:59:35;100711.75;;;10.86;100.00
74895;BME280;63447;49.446;8.666;2024-02-15T07:02:05;100709.31;;;10.84;100.00
74895;BME280;63447;49.446;8.666;2024-02-15T07:04:30;100706.06;;;10.82;100.00
74895;BME280;63447;49.446;8.666;2024-02-15T07:06:58;100712.72;;;10.90;100.00
74895;BME280;63447;49.446;8.666;2024-02-15T07:09:27;100703.28;;;10.82;100.00
74895;BME280;63447;49.446;8.666;2024-02-15T07:11:52;100714.19;;;10.87;100.00
74895;BME280;63447;49.446;8.666;2024-02-15T07:14:20;100694.19;;;10.82;100.00
74895;BME280;63447;49.446;8.666;2024-02-15T07:16:48;100714.47;;;10.95;100.00
74895;BME280;63447;49.446;8.666;2024-02-15T07:19:17;100697.44;;;10.84;100.00
74895;BME280;63447;49.446;8.666;2024-02-15T07:21:43;100722.44;;;10.96;100.00
74895;BME280;63447;49.446;8.666;2024-02-15T07:24:09;100705.72;;;11.01;100.00
74895;BME280;63447;49.446;8.666;2024-02-15T07:26:35;100715.44;;;11.07;100.00
74895;BME280;63447;49.446;8.666;2024-02-15T07:29:03;100698.72;;;10.95;100.00
74895;BME280;63447;49.446;8.666;2024-02-15T07:31:39;100711.56;;;11.08;100.00
74895;BME280;63447;49.446;8.666;2024-02-15T07:34:05;100693.69;;;10.97;100.00
74895;BME280;63447;49.446;8.666;2024-02-15T07:36:30;100695.16;;;11.03;100.00
74895;BME280;63447;49.446;8.666;2024-02-15T07:38:56;100689.13;;;11.10;100.00
74895;BME280;63447;49.446;8.666;2024-02-15T07:41:28;100696.94;;;11.16;100.00
74895;BME280;63447;49.446;8.666;2024-02-15T07:43:58;100687.16;;;11.19;100.00
74895;BME280;63447;49.446;8.666;2024-02-15T07:46:23;100683.78;;;11.13;100.00
74895;BME280;63447;49.446;8.666;2024-02-15T07:48:51;100695.44;;;11.28;100.00
74895;BME280;63447;49.446;8.666;2024-02-15T07:51:18;100682.75;;;11.27;100.00
74895;BME280;63447;49.446;8.666;2024-02-15T07:53:44;100690.22;;;11.35;100.00
74895;BME280;63447;49.446;8.666;2024-02-15T07:56:14;100666.19;;;11.27;98.66
74895;BME280;63447;49.446;8.666;2024-02-15T07:58:44;100701.38;;;11.47;98.43
74895;BME280;63447;49.446;8.666;2024-02-15T08:01:13;100707.22;;;11.54;96.90
74895;BME280;63447;49.446;8.666;2024-02-15T08:03:41;100699.28;;;11.44;96.88
74895;BME280;63447;49.446;8.666;2024-02-15T08:06:10;100707.38;;;11.57;97.81
74895;BME280;63447;49.446;8.666;2024-02-15T08:08:44;100710.78;;;11.63;98.20
74895;BME280;63447;49.446;8.666;2024-02-15T08:11:12;100711.84;;;11.71;98.16
74895;BME280;63447;49.446;8.666;2024-02-15T08:13:43;100717.72;;;11.78;96.80
74895;BME280;63447;49.446;8.666;2024-02-15T08:16:11;100703.44;;;11.67;97.59
74895;BME280;63447;49.446;8.666;2024-02-15T08:18:41;100708.75;;;11.72;97.26
74895;BME280;63447;49.446;8.666;2024-02-15T08:21:07;100707.69;;;11.65;97.96
74895;BME280;63447;49.446;8.666;2024-02-15T08:23:35;100714.16;;;11.77;98.13
74895;BME280;63447;49.446;8.666;2024-02-15T08:26:04;100702.41;;;11.72;97.49
74895;BME280;63447;49.446;8.666;2024-02-15T08:28:32;100723.88;;;11.83;97.88
74895;BME280;63447;49.446;8.666;2024-02-15T08:30:57;100714.75;;;11.92;97.53
74895;BME280;63447;49.446;8.666;2024-02-15T08:33:23;100672.56;;;11.65;97.63
74895;BME280;63447;49.446;8.666;2024-02-15T08:35:49;100698.97;;;11.92;98.89
74895;BME280;63447;49.446;8.666;2024-02-15T08:38:14;100695.97;;;12.06;98.53
74895;BME280;63447;49.446;8.666;2024-02-15T08:40:40;100698.09;;;12.30;98.74
74895;BME280;63447;49.446;8.666;2024-02-15T08:43:07;100710.78;;;12.51;97.82
74895;BME280;63447;49.446;8.666;2024-02-15T08:45:35;100700.94;;;12.63;97.52
74895;BME280;63447;49.446;8.666;2024-02-15T08:48:00;100692.31;;;12.64;95.09
74895;BME280;63447;49.446;8.666;2024-02-15T08:50:29;100717.56;;;12.63;93.20
74895;BME280;63447;49.446;8.666;2024-02-15T08:52:57;100714.97;;;12.78;93.98
74895;BME280;63447;49.446;8.666;2024-02-15T08:55:26;100694.84;;;12.90;92.30
74895;BME280;63447;49.446;8.666;2024-02-15T08:57:54;100700.22;;;13.07;91.58
74895;BME280;63447;49.446;8.666;2024-02-15T09:00:22;100712.16;;;13.41;90.64
74895;BME280;63447;49.446;8.666;2024-02-15T09:02:52;100694.97;;;13.59;90.43
74895;BME280;63447;49.446;8.666;2024-02-15T09:05:18;100681.47;;;13.82;87.45
74895;BME280;63447;49.446;8.666;2024-02-15T09:07:45;100712.22;;;14.14;84.42
74895;BME280;63447;49.446;8.666;2024-02-15T09:10:14;100700.66;;;14.24;84.44
74895;BME280;63447;49.446;8.666;2024-02-15T09:12:43;100702.44;;;14.69;81.82
74895;BME280;63447;49.446;8.666;2024-02-15T09:15:15;100699.25;;;15.10;81.36
74895;BME280;63447;49.446;8.666;2024-02-15T09:17:41;100692.41;;;15.36;78.09
74895;BME280;63447;49.446;8.666;2024-02-15T09:20:10;100691.88;;;15.58;77.86
74895;BME280;63447;49.446;8.666;2024-02-15T09:22:51;100685.28;;;15.98;75.35
74895;BME280;63447;49.446;8.666;2024-02-15T09:25:18;100669.09;;;16.19;75.66
74895;BME280;63447;49.446;8.666;2024-02-15T09:27:45;100673.31;;;16.48;75.36
74895;BME280;63447;49.446;8.666;2024-02-15T09:30:12;100676.47;;;16.46;74.64
74895;BME280;63447;49.446;8.666;2024-02-15T09:32:40;100685.56;;;16.78;71.35
74895;BME280;63447;49.446;8.666;2024-02-15T09:35:06;100678.53;;;16.14;70.12
74895;BME280;63447;49.446;8.666;2024-02-15T09:37:36;100672.94;;;15.79;70.96
74895;BME280;63447;49.446;8.666;2024-02-15T09:40:09;100630.78;;;15.18;70.23
74895;BME280;63447;49.446;8.666;2024-02-15T09:42:36;100653.88;;;15.50;71.87
74895;BME280;63447;49.446;8.666;2024-02-15T09:45:06;100666.72;;;15.86;70.91
74895;BME280;63447;49.446;8.666;2024-02-15T09:47:36;100651.53;;;15.52;69.59
74895;BME280;63447;49.446;8.666;2024-02-15T09:50:02;100652.63;;;15.32;70.97
74895;BME280;63447;49.446;8.666;2024-02-15T09:52:31;100650.03;;;15.54;72.21
74895;BME280;63447;49.446;8.666;2024-02-15T09:54:57;100661.16;;;15.11;71.37
74895;BME280;63447;49.446;8.666;2024-02-15T09:57:23;100638.91;;;14.95;71.83
74895;BME280;63447;49.446;8.666;2024-02-15T09:59:51;100659.16;;;15.86;70.31
74895;BME280;63447;49.446;8.666;2024-02-15T10:02:20;100643.13;;;15.80;68.93
74895;BME280;63447;49.446;8.666;2024-02-15T10:04:46;100645.47;;;15.78;67.53
74895;BME280;63447;49.446;8.666;2024-02-15T10:07:14;100635.78;;;15.56;67.08
74895;BME280;63447;49.446;8.666;2024-02-15T10:09:39;100650.56;;;15.60;67.37
74895;BME280;63447;49.446;8.666;2024-02-15T10:12:08;100648.78;;;16.53;64.53
74895;BME280;63447;49.446;8.666;2024-02-15T10:14:35;100624.66;;;17.00;64.07
74895;BME280;63447;49.446;8.666;2024-02-15T10:17:15;100634.03;;;16.53;65.63
74895;BME280;63447;49.446;8.666;2024-02-15T10:19:42;100637.97;;;16.87;64.87
74895;BME280;63447;49.446;8.666;2024-02-15T10:22:14;100634.97;;;16.22;66.16
74895;BME280;63447;49.446;8.666;2024-02-15T10:24:45;100621.31;;;16.17;65.34
74895;BME280;63447;49.446;8.666;2024-02-15T10:27:13;100632.63;;;16.43;65.29
74895;BME280;63447;49.446;8.666;2024-02-15T10:29:38;100625.94;;;15.58;66.82
74895;BME280;63447;49.446;8.666;2024-02-15T10:32:08;100621.47;;;15.42;67.87
74895;BME280;63447;49.446;8.666;2024-02-15T10:34:43;100613.22;;;15.45;67.96
74895;BME280;63447;49.446;8.666;2024-02-15T10:37:14;100622.19;;;15.39;69.48
74895;BME280;63447;49.446;8.666;2024-02-15T10:39:41;100612.00;;;15.74;68.71
74895;BME280;63447;49.446;8.666;2024-02-15T10:42:08;100618.59;;;16.36;66.57
74895;BME280;63447;49.446;8.666;2024-02-15T10:44:39;100612.09;;;15.78;67.35
74895;BME280;63447;49.446;8.666;2024-02-15T10:47:07;100607.22;;;16.45;66.86
74895;BME280;63447;49.446;8.666;2024-02-15T10:49:37;100602.91;;;16.86;63.00
74895;BME280;63447;49.446;8.666;2024-02-15T10:52:08;100609.63;;;17.04;61.83
74895;BME280;63447;49.446;8.666;2024-02-15T10:54:47;100609.50;;;17.88;61.27
74895;BME280;63447;49.446;8.666;2024-02-15T10:57:21;100605.44;;;16.94;62.65
74895;BME280;63447;49.446;8.666;2024-02-15T10:59:57;100605.47;;;16.56;65.01
74895;BME280;63447;49.446;8.666;2024-02-15T11:02:30;100601.84;;;16.94;63.33
74895;BME280;63447;49.446;8.666;2024-02-15T11:05:06;100606.34;;;17.21;60.42
74895;BME280;63447;49.446;8.666;2024-02-15T11:07:38;100596.34;;;17.89;59.74
74895;BME280;63447;49.446;8.666;2024-02-15T11:10:08;100586.81;;;17.67;59.90
74895;BME280;63447;49.446;8.666;2024-02-15T11:12:42;100589.72;;;17.74;61.03
74895;BME280;63447;49.446;8.666;2024-02-15T11:15:09;100577.00;;;18.63;58.06
74895;BME280;63447;49.446;8.666;2024-02-15T11:20:12;100576.88;;;19.30;53.83
74895;BME280;63447;49.446;8.666;2024-02-15T11:22:58;100543.81;;;18.95;52.81
74895;BME280;63447;49.446;8.666;2024-02-15T11:25:37;100564.22;;;20.78;49.50
74895;BME280;63447;49.446;8.666;2024-02-15T11:30:48;100554.63;;;21.85;46.57
74895;BME280;63447;49.446;8.666;2024-02-15T11:33:32;100568.69;;;22.07;45.15
74895;BME280;63447;49.446;8.666;2024-02-15T11:36:11;100561.91;;;21.54;43.82
74895;BME280;63447;49.446;8.666;2024-02-15T11:38:40;100549.78;;;20.79;46.71
74895;BME280;63447;49.446;8.666;2024-02-15T11:41:07;100553.91;;;21.24;44.75
74895;BME280;63447;49.446;8.666;2024-02-15T11:46:18;100551.78;;;20.72;44.26
74895;BME280;63447;49.446;8.666;2024-02-15T11:48:45;100548.78;;;20.29;43.93
74895;BME280;63447;49.446;8.666;2024-02-15T11:51:33;100527.31;;;19.82;44.75
74895;BME280;63447;49.446;8.666;2024-02-15T11:54:06;100547.03;;;19.96;45.24
74895;BME280;63447;49.446;8.666;2024-02-15T11:56:33;100537.16;;;19.58;45.42
74895;BME280;63447;49.446;8.666;2024-02-15T11:59:04;100528.63;;;18.96;48.00
74895;BME280;63447;49.446;8.666;2024-02-15T12:01:32;100524.31;;;19.06;47.60
74895;BME280;63447;49.446;8.666;2024-02-15T12:04:18;100516.88;;;19.24;46.70
74895;BME280;63447;49.446;8.666;2024-02-15T12:07:03;100504.28;;;18.96;46.88
74895;BME280;63447;49.446;8.666;2024-02-15T12:09:49;100521.59;;;18.72;48.85
74895;BME280;63447;49.446;8.666;2024-02-15T12:12:33;100506.13;;;18.48;48.67
74895;BME280;63447;49.446;8.666;2024-02-15T12:15:20;100496.88;;;18.41;49.65
74895;BME280;63447;49.446;8.666;2024-02-15T12:18:16;100489.41;;;17.85;51.17
74895;BME280;63447;49.446;8.666;2024-02-15T12:21:01;100494.34;;;17.69;51.58
74895;BME280;63447;49.446;8.666;2024-02-15T12:23:29;100488.38;;;17.44;52.69
74895;BME280;63447;49.446;8.666;2024-02-15T12:25:59;100473.53;;;17.36;53.48
74895;BME280;63447;49.446;8.666;2024-02-15T12:28:25;100480.34;;;17.95;53.78
74895;BME280;63447;49.446;8.666;2024-02-15T12:30:55;100472.72;;;17.09;55.99
74895;BME280;63447;49.446;8.666;2024-02-15T12:33:21;100434.72;;;17.01;55.88
74895;BME280;63447;49.446;8.666;2024-02-15T12:35:47;100458.13;;;17.19;56.27
74895;BME280;63447;49.446;8.666;2024-02-15T12:38:17;100456.31;;;17.30;56.19
74895;BME280;63447;49.446;8.666;2024-02-15T12:40:43;100423.66;;;17.31;57.94
74895;BME280;63447;49.446;8.666;2024-02-15T12:43:13;100453.72;;;17.18;57.94
74895;BME280;63447;49.446;8.666;2024-02-15T12:45:41;100446.75;;;17.32;57.60
74895;BME280;63447;49.446;8.666;2024-02-15T12:48:08;100451.03;;;17.25;57.30
74895;BME280;63447;49.446;8.666;2024-02-15T12:50:34;100444.72;;;17.02;57.72
74895;BME280;63447;49.446;8.666;2024-02-15T12:53:00;100457.91;;;17.32;57.77
74895;BME280;63447;49.446;8.666;2024-02-15T12:55:30;100420.97;;;17.12;58.34
74895;BME280;63447;49.446;8.666;2024-02-15T12:58:00;100462.75;;;17.35;57.06
74895;BME280;63447;49.446;8.666;2024-02-15T13:00:30;100458.53;;;17.21;58.49